Estación Meteorológica Peña el Pijo (Robertgarden) [ 02/03/23 02:56:47 CET ]

Fecha Hora Presion(HPa) Temp (°C) Humedad % Rocio (°C) Viento ( m/s) Direccion Lluvia 1Hora(mm) Lluvia 24H(mm) LLuvia Total(mm)
2012-Jun-18 01:01:13 1013.900 17.2 59 9.1         159.54
2012-Jun-18 02:01:13 1013.200 15.8 62 8.6         159.54
2012-Jun-18 03:05:08 1012.800 14.9 67 8.8         159.54
2012-Jun-18 04:01:16 1012.200 14.4 68 8.6         159.54
2012-Jun-18 05:01:17 1012.100 13.9 67 7.8         159.54
2012-Jun-18 06:01:12 1011.900 13.2 68 7.4         159.54
2012-Jun-18 07:01:18 1012.000 12.5 69 7.0         159.54
2012-Jun-18 08:01:18 1011.900 15.4 66 9.1         159.54
2012-Jun-18 09:01:14 1011.900 21.8 53 11.8         159.54
2012-Jun-18 10:01:16 1011.800 27.7 36 11.2 1.7 ENE     159.54
2012-Jun-18 11:01:17 1011.600 26.9 34 9.6 1.6 NE     159.54
2012-Jun-18 12:01:17 1011.300 30.1 29 10.1         159.54
2012-Jun-18 13:01:19 1010.800 33.0 24 9.5         159.54
2012-Jun-18 14:01:15 1010.500 33.0 24 9.5 0.4 WSW     159.54
2012-Jun-18 15:01:19 1011.000 25.5 40 10.9         159.54
2012-Jun-18 16:01:13 1010.200 29.9 34 12.3 0.6 E     159.54
2012-Jun-18 17:01:14 1009.100 30.9 32 12.2         159.54
2012-Jun-18 18:01:12 1008.800 31.8 31 12.6         159.54
2012-Jun-18 19:01:12 1008.500 29.5 36 12.8         159.54
2012-Jun-18 20:01:14 1008.900 26.3 43 12.7         159.54
2012-Jun-18 21:01:14 1009.400 23.4 50 12.4         159.54
2012-Jun-18 22:01:16 1009.100 21.8 55 12.3         159.54
2012-Jun-18 23:01:16 1009.600 20.5 60 12.5         159.54

Temperatura Máxima:33°    Temperatura Mínima:12°
Presión Máxima:1013.900 Hpa    Presión Mínima:1008.500 Hpa


Volver